Time,TemperatureF,DewpointF,PressureIn,WindDirection,WindDirectionDegrees,WindSpeedMPH,WindSpeedGustMPH,Humidity,HourlyPrecipIn,Conditions,Clouds,dailyrainin,SoftwareType,DateUTC
2013-01-16 00:00:00,24.3,21.5,30.19,NNE,15,0.0,0.0,89,0.00,,,0.00,WUHU216DAVISVP2,2013-01-16 05:00:00,
2013-01-16 00:01:00,24.3,21.5,30.19,NNE,16,0.0,0.0,89,0.00,,,0.00,WUHU216DAVISVP2,2013-01-16 05:01:00,
2013-01-16 00:06:00,24.2,21.4,30.18,NNE,15,0.0,0.0,89,0.00,,,0.00,WUHU216DAVISVP2,2013-01-16 05:06:00,
2013-01-16 00:11:00,24.2,21.4,30.19,NNE,15,0.0,0.0,89,0.00,,,0.00,WUHU216DAVISVP2,2013-01-16 05:11:00,
2013-01-16 00:16:00,24.3,21.7,30.18,NNE,16,0.0,0.0,90,0.00,,,0.00,WUHU216DAVISVP2,2013-01-16 05:16:00,
2013-01-16 00:21:00,24.2,21.7,30.18,NNE,16,0.0,0.0,90,0.00,,,0.00,WUHU216DAVISVP2,2013-01-16 05:21:00,
2013-01-16 00:26:00,24.2,21.7,30.18,NNE,15,0.0,0.0,90,0.00,,,0.00,WUHU216DAVISVP2,2013-01-16 05:26:00,
2013-01-16 00:31:00,24.2,21.6,30.18,NNW,344,0.0,0.0,90,0.00,,,0.00,WUHU216DAVISVP2,2013-01-16 05:31:00,
2013-01-16 00:36:00,24.2,21.6,30.17,North,9,0.0,0.0,90,0.00,,,0.00,WUHU216DAVISVP2,2013-01-16 05:36:00,
2013-01-16 00:41:00,24.3,21.8,30.17,NNE,13,0.0,0.0,90,0.00,,,0.00,WUHU216DAVISVP2,2013-01-16 05:41:00,
2013-01-16 00:46:00,24.2,21.7,30.17,NNE,13,0.0,0.0,90,0.00,,,0.00,WUHU216DAVISVP2,2013-01-16 05:46:00,
2013-01-16 00:51:00,24.1,21.5,30.17,NNE,12,0.0,0.0,90,0.00,,,0.00,WUHU216DAVISVP2,2013-01-16 05:51:00,
2013-01-16 00:56:00,24.0,21.4,30.17,NNE,12,0.0,0.0,90,0.00,,,0.00,WUHU216DAVISVP2,2013-01-16 05:56:00,
2013-01-16 01:01:00,23.8,21.2,30.16,NNE,13,0.0,0.0,90,0.00,,,0.00,WUHU216DAVISVP2,2013-01-16 06:01:00,
2013-01-16 01:06:00,23.6,21.0,30.16,NNE,12,0.0,0.0,90,0.00,,,0.00,WUHU216DAVISVP2,2013-01-16 06:06:00,
2013-01-16 01:11:00,23.4,20.9,30.16,NNE,13,0.0,0.0,90,0.00,,,0.00,WUHU216DAVISVP2,2013-01-16 06:11:00,
2013-01-16 01:16:00,23.1,20.6,30.16,NNE,12,0.0,0.0,90,0.00,,,0.00,WUHU216DAVISVP2,2013-01-16 06:16:00,
2013-01-16 01:21:00,23.2,20.9,30.16,NNW,333,0.0,0.0,91,0.00,,,0.00,WUHU216DAVISVP2,2013-01-16 06:21:00,
2013-01-16 01:26:00,23.4,21.1,30.16,NNW,328,0.0,0.0,91,0.00,,,0.00,WUHU216DAVISVP2,2013-01-16 06:26:00,
2013-01-16 01:31:00,23.4,21.1,30.16,NW,326,0.0,0.0,91,0.00,,,0.00,WUHU216DAVISVP2,2013-01-16 06:31:00,
2013-01-16 01:36:00,23.3,21.0,30.15,NNW,346,0.0,0.0,91,0.00,,,0.00,WUHU216DAVISVP2,2013-01-16 06:36:00,
2013-01-16 01:41:00,23.4,21.1,30.16,NNW,339,0.0,0.0,91,0.00,,,0.00,WUHU216DAVISVP2,2013-01-16 06:41:00,
2013-01-16 01:46:00,23.5,21.2,30.16,NW,312,0.0,0.0,91,0.00,,,0.00,WUHU216DAVISVP2,2013-01-16 06:46:00,
2013-01-16 01:51:00,23.7,21.4,30.16,NNW,340,0.0,2.0,91,0.00,,,0.00,WUHU216DAVISVP2,2013-01-16 06:51:00,
2013-01-16 01:56:00,23.7,21.5,30.15,North,360,0.0,2.0,91,0.00,,,0.00,WUHU216DAVISVP2,2013-01-16 06:56:00,
2013-01-16 02:01:00,23.7,21.5,30.15,North,9,0.0,2.0,91,0.00,,,0.00,WUHU216DAVISVP2,2013-01-16 07:01:00,
2013-01-16 02:06:00,23.6,21.3,30.14,North,1,0.0,0.0,91,0.00,,,0.00,WUHU216DAVISVP2,2013-01-16 07:06:00,
2013-01-16 02:11:00,23.6,21.3,30.14,NNE,15,0.0,0.0,91,0.00,,,0.00,WUHU216DAVISVP2,2013-01-16 07:11:00,
2013-01-16 02:16:00,23.5,21.2,30.14,North,1,0.0,0.0,91,0.00,,,0.00,WUHU216DAVISVP2,2013-01-16 07:16:00,
2013-01-16 02:21:00,23.4,21.1,30.15,NNW,335,0.0,0.0,91,0.00,,,0.00,WUHU216DAVISVP2,2013-01-16 07:21:00,
2013-01-16 02:26:00,23.4,21.1,30.14,North,354,0.0,0.0,91,0.00,,,0.00,WUHU216DAVISVP2,2013-01-16 07:26:00,
2013-01-16 02:31:00,23.4,21.1,30.14,NNW,334,0.0,0.0,91,0.00,,,0.00,WUHU216DAVISVP2,2013-01-16 07:31:00,
2013-01-16 02:36:00,23.4,21.1,30.15,NNW,339,0.0,0.0,91,0.00,,,0.00,WUHU216DAVISVP2,2013-01-16 07:36:00,
2013-01-16 02:41:00,23.6,21.6,30.14,NNW,342,1.0,2.0,92,0.00,,,0.00,WUHU216DAVISVP2,2013-01-16 07:41:00,
2013-01-16 02:46:00,23.5,21.2,30.14,North,1,0.0,2.0,91,0.00,,,0.00,WUHU216DAVISVP2,2013-01-16 07:46:00,
2013-01-16 02:51:00,23.6,21.3,30.13,North,6,0.0,2.0,91,0.00,,,0.00,WUHU216DAVISVP2,2013-01-16 07:51:00,
2013-01-16 02:56:00,23.6,21.3,30.13,NNE,29,0.0,2.0,91,0.00,,,0.00,WUHU216DAVISVP2,2013-01-16 07:56:00,
2013-01-16 03:01:00,23.5,21.2,30.13,ENE,58,0.0,0.0,91,0.00,,,0.00,WUHU216DAVISVP2,2013-01-16 08:01:00,
2013-01-16 03:06:00,23.4,21.1,30.12,NE,43,0.0,0.0,91,0.00,,,0.00,WUHU216DAVISVP2,2013-01-16 08:06:00,
2013-01-16 03:11:00,23.3,21.0,30.13,ENE,77,0.0,0.0,91,0.00,,,0.00,WUHU216DAVISVP2,2013-01-16 08:11:00,
2013-01-16 03:16:00,23.2,21.0,30.13,ENE,75,0.0,0.0,91,0.00,,,0.00,WUHU216DAVISVP2,2013-01-16 08:16:00,
2013-01-16 03:21:00,23.1,20.9,30.14,ENE,75,0.0,0.0,91,0.00,,,0.00,WUHU216DAVISVP2,2013-01-16 08:21:00,
2013-01-16 03:26:00,23.0,20.8,30.14,ENE,75,0.0,0.0,91,0.00,,,0.00,WUHU216DAVISVP2,2013-01-16 08:26:00,
2013-01-16 03:31:00,22.9,20.9,30.14,ENE,75,0.0,0.0,92,0.00,,,0.00,WUHU216DAVISVP2,2013-01-16 08:31:00,
2013-01-16 03:36:00,22.9,20.9,30.14,ENE,75,0.0,0.0,92,0.00,,,0.00,WUHU216DAVISVP2,2013-01-16 08:36:00,
2013-01-16 03:41:00,22.9,20.9,30.14,ENE,75,0.0,0.0,92,0.00,,,0.00,WUHU216DAVISVP2,2013-01-16 08:41:00,
2013-01-16 03:46:00,23.0,21.0,30.14,ENE,75,0.0,0.0,92,0.00,,,0.00,WUHU216DAVISVP2,2013-01-16 08:46:00,
2013-01-16 03:51:00,23.1,21.1,30.13,ENE,75,0.0,0.0,92,0.00,,,0.00,WUHU216DAVISVP2,2013-01-16 08:51:00,
2013-01-16 03:56:00,23.2,21.2,30.13,ENE,75,0.0,0.0,92,0.00,,,0.00,WUHU216DAVISVP2,2013-01-16 08:56:00,
2013-01-16 04:01:00,23.2,21.2,30.12,ENE,75,0.0,0.0,92,0.00,,,0.00,WUHU216DAVISVP2,2013-01-16 09:01:00,
2013-01-16 04:06:00,23.3,21.3,30.12,SE,125,0.0,0.0,92,0.00,,,0.00,WUHU216DAVISVP2,2013-01-16 09:06:00,
2013-01-16 04:11:00,23.4,21.4,30.12,SE,136,0.0,0.0,92,0.00,,,0.00,WUHU216DAVISVP2,2013-01-16 09:11:00,
2013-01-16 04:16:00,23.4,21.4,30.11,ESE,123,0.0,0.0,92,0.00,,,0.00,WUHU216DAVISVP2,2013-01-16 09:16:00,
2013-01-16 04:21:00,23.5,21.5,30.11,SSE,150,0.0,0.0,92,0.00,,,0.00,WUHU216DAVISVP2,2013-01-16 09:21:00,
2013-01-16 04:26:00,23.6,21.6,30.11,SSE,155,0.0,0.0,92,0.00,,,0.00,WUHU216DAVISVP2,2013-01-16 09:26:00,
2013-01-16 04:31:00,23.7,21.7,30.11,SSW,199,0.0,0.0,92,0.00,,,0.00,WUHU216DAVISVP2,2013-01-16 09:31:00,
2013-01-16 04:36:00,23.7,21.7,30.11,SSW,205,0.0,0.0,92,0.00,,,0.00,WUHU216DAVISVP2,2013-01-16 09:36:00,
2013-01-16 04:41:00,23.7,21.7,30.10,SSW,212,0.0,0.0,92,0.00,,,0.00,WUHU216DAVISVP2,2013-01-16 09:41:00,
2013-01-16 04:46:00,23.6,21.6,30.11,SW,235,0.0,0.0,92,0.00,,,0.00,WUHU216DAVISVP2,2013-01-16 09:46:00,
2013-01-16 04:51:00,23.6,21.6,30.11,West,263,0.0,0.0,92,0.00,,,0.00,WUHU216DAVISVP2,2013-01-16 09:51:00,
2013-01-16 04:56:00,23.6,21.6,30.11,West,263,0.0,0.0,92,0.00,,,0.00,WUHU216DAVISVP2,2013-01-16 09:56:00,
2013-01-16 05:01:00,23.6,21.6,30.10,West,263,0.0,0.0,92,0.00,,,0.00,WUHU216DAVISVP2,2013-01-16 10:01:00,
2013-01-16 05:06:00,23.6,21.6,30.10,West,271,0.0,0.0,92,0.00,,,0.00,WUHU216DAVISVP2,2013-01-16 10:06:00,
2013-01-16 05:11:00,23.7,21.7,30.10,West,271,0.0,0.0,92,0.00,,,0.00,WUHU216DAVISVP2,2013-01-16 10:11:00,
2013-01-16 05:16:00,23.7,21.7,30.10,West,271,0.0,0.0,92,0.00,,,0.00,WUHU216DAVISVP2,2013-01-16 10:16:00,
2013-01-16 05:21:00,23.6,21.6,30.10,West,269,0.0,0.0,92,0.00,,,0.00,WUHU216DAVISVP2,2013-01-16 10:21:00,
2013-01-16 05:26:00,23.5,21.5,30.09,West,269,0.0,0.0,92,0.00,,,0.00,WUHU216DAVISVP2,2013-01-16 10:26:00,
2013-01-16 05:31:00,23.4,21.4,30.09,WSW,248,0.0,0.0,92,0.00,,,0.00,WUHU216DAVISVP2,2013-01-16 10:31:00,
2013-01-16 05:36:00,23.2,21.2,30.09,SSW,210,0.0,0.0,92,0.00,,,0.00,WUHU216DAVISVP2,2013-01-16 10:36:00,
2013-01-16 05:41:00,22.9,21.1,30.09,SW,224,0.0,0.0,93,0.00,,,0.00,WUHU216DAVISVP2,2013-01-16 10:41:00,
2013-01-16 05:46:00,22.8,21.0,30.09,WSW,243,0.0,0.0,93,0.00,,,0.00,WUHU216DAVISVP2,2013-01-16 10:46:00,
2013-01-16 05:51:00,22.8,21.0,30.08,WSW,242,0.0,0.0,93,0.00,,,0.00,WUHU216DAVISVP2,2013-01-16 10:51:00,
2013-01-16 05:56:00,22.7,20.9,30.08,WSW,242,0.0,0.0,93,0.00,,,0.00,WUHU216DAVISVP2,2013-01-16 10:56:00,
2013-01-16 06:01:00,22.7,20.9,30.08,WSW,245,0.0,0.0,93,0.00,,,0.00,WUHU216DAVISVP2,2013-01-16 11:01:00,
2013-01-16 06:06:00,22.8,21.0,30.07,WSW,245,0.0,0.0,93,0.00,,,0.00,WUHU216DAVISVP2,2013-01-16 11:06:00,
2013-01-16 06:11:00,22.9,21.1,30.07,WSW,252,0.0,0.0,93,0.00,,,0.00,WUHU216DAVISVP2,2013-01-16 11:11:00,
2013-01-16 06:16:00,22.9,21.2,30.07,West,259,0.0,0.0,93,0.00,,,0.00,WUHU216DAVISVP2,2013-01-16 11:16:00,
2013-01-16 06:21:00,22.9,21.2,30.07,West,266,0.0,0.0,93,0.00,,,0.00,WUHU216DAVISVP2,2013-01-16 11:21:00,
2013-01-16 06:26:00,23.0,21.3,30.06,West,266,0.0,0.0,93,0.00,,,0.00,WUHU216DAVISVP2,2013-01-16 11:26:00,
2013-01-16 06:31:00,22.9,21.2,30.06,West,260,0.0,0.0,93,0.00,,,0.00,WUHU216DAVISVP2,2013-01-16 11:31:00,
2013-01-16 06:36:00,22.9,21.2,30.06,SSW,212,0.0,0.0,93,0.00,,,0.00,WUHU216DAVISVP2,2013-01-16 11:36:00,
2013-01-16 06:41:00,22.8,21.0,30.07,SSW,210,0.0,0.0,93,0.00,,,0.00,WUHU216DAVISVP2,2013-01-16 11:41:00,
2013-01-16 06:46:00,22.8,21.3,30.06,SSW,209,0.0,0.0,94,0.00,,,0.00,WUHU216DAVISVP2,2013-01-16 11:46:00,
2013-01-16 06:51:00,22.9,21.4,30.06,SSE,160,0.0,0.0,94,0.00,,,0.00,WUHU216DAVISVP2,2013-01-16 11:51:00,
2013-01-16 06:56:00,22.9,21.4,30.05,South,177,0.0,0.0,94,0.00,,,0.00,WUHU216DAVISVP2,2013-01-16 11:56:00,
2013-01-16 07:01:00,22.8,21.3,30.06,South,177,0.0,0.0,94,0.00,,,0.00,WUHU216DAVISVP2,2013-01-16 12:01:00,
2013-01-16 07:06:00,22.7,21.2,30.05,WSW,245,0.0,0.0,94,0.00,,,0.00,WUHU216DAVISVP2,2013-01-16 12:06:00,
2013-01-16 07:11:00,22.5,21.0,30.05,WSW,249,0.0,0.0,94,0.00,,,0.00,WUHU216DAVISVP2,2013-01-16 12:11:00,
2013-01-16 07:16:00,22.5,21.0,30.05,WSW,249,0.0,0.0,94,0.00,,,0.00,WUHU216DAVISVP2,2013-01-16 12:16:00,
2013-01-16 07:21:00,22.4,20.9,30.05,WSW,248,0.0,0.0,94,0.00,,,0.00,WUHU216DAVISVP2,2013-01-16 12:21:00,
2013-01-16 07:26:00,22.3,20.8,30.05,SSW,210,0.0,0.0,94,0.00,,,0.00,WUHU216DAVISVP2,2013-01-16 12:26:00,
2013-01-16 07:31:00,21.9,20.4,30.05,SW,215,0.0,0.0,94,0.00,,,0.00,WUHU216DAVISVP2,2013-01-16 12:31:00,
2013-01-16 07:36:00,21.7,20.2,30.06,SW,235,0.0,0.0,94,0.00,,,0.00,WUHU216DAVISVP2,2013-01-16 12:36:00,
2013-01-16 07:41:00,21.6,20.1,30.06,WSW,243,0.0,0.0,94,0.00,,,0.00,WUHU216DAVISVP2,2013-01-16 12:41:00,
2013-01-16 07:46:00,21.0,19.3,30.06,SSW,210,0.0,0.0,93,0.00,,,0.00,WUHU216DAVISVP2,2013-01-16 12:46:00,
2013-01-16 07:51:00,21.0,19.5,30.06,SW,235,0.0,0.0,94,0.00,,,0.00,WUHU216DAVISVP2,2013-01-16 12:51:00,
2013-01-16 07:56:00,21.1,19.9,30.06,WSW,238,0.0,0.0,95,0.00,,,0.00,WUHU216DAVISVP2,2013-01-16 12:56:00,
2013-01-16 08:01:00,21.1,19.6,30.06,WSW,238,0.0,0.0,94,0.00,,,0.00,WUHU216DAVISVP2,2013-01-16 13:01:00,
2013-01-16 08:06:00,21.1,19.6,30.05,WSW,239,0.0,0.0,94,0.00,,,0.00,WUHU216DAVISVP2,2013-01-16 13:06:00,
2013-01-16 08:11:00,21.0,19.5,30.05,SSW,193,0.0,0.0,94,0.00,,,0.00,WUHU216DAVISVP2,2013-01-16 13:11:00,
2013-01-16 08:16:00,20.8,19.3,30.05,SSW,207,0.0,0.0,94,0.00,,,0.00,WUHU216DAVISVP2,2013-01-16 13:16:00,
2013-01-16 08:21:00,20.6,19.1,30.05,SW,215,0.0,0.0,94,0.00,,,0.00,WUHU216DAVISVP2,2013-01-16 13:21:00,
2013-01-16 08:26:00,20.4,18.9,30.05,SSW,203,0.0,0.0,94,0.00,,,0.00,WUHU216DAVISVP2,2013-01-16 13:26:00,
2013-01-16 08:31:00,20.1,18.6,30.05,SSW,205,0.0,0.0,94,0.00,,,0.00,WUHU216DAVISVP2,2013-01-16 13:31:00,
2013-01-16 08:36:00,20.3,18.8,30.05,SW,215,0.0,0.0,94,0.00,,,0.00,WUHU216DAVISVP2,2013-01-16 13:36:00,
2013-01-16 08:41:00,21.0,19.7,30.05,SW,222,0.0,0.0,95,0.00,,,0.00,WUHU216DAVISVP2,2013-01-16 13:41:00,
2013-01-16 08:46:00,21.7,20.4,30.05,SW,231,3.0,4.0,95,0.00,,,0.00,WUHU216DAVISVP2,2013-01-16 13:46:00,
2013-01-16 08:51:00,22.3,21.0,30.06,WSW,255,0.0,5.0,95,0.00,,,0.00,WUHU216DAVISVP2,2013-01-16 13:51:00,
2013-01-16 08:56:00,22.5,21.0,30.06,WSW,251,0.0,5.0,94,0.00,,,0.00,WUHU216DAVISVP2,2013-01-16 13:56:00,
2013-01-16 09:01:00,22.8,21.3,30.06,SW,232,2.0,4.0,94,0.00,,,0.00,WUHU216DAVISVP2,2013-01-16 14:01:00,
2013-01-16 09:06:00,23.1,21.6,30.06,WSW,242,0.0,4.0,94,0.00,,,0.00,WUHU216DAVISVP2,2013-01-16 14:06:00,
2013-01-16 09:11:00,23.5,22.0,30.06,SW,235,8.0,8.0,94,0.00,,,0.00,WUHU216DAVISVP2,2013-01-16 14:11:00,
2013-01-16 09:16:00,23.9,22.1,30.07,SW,235,8.0,8.0,93,0.00,,,0.00,WUHU216DAVISVP2,2013-01-16 14:16:00,
2013-01-16 09:21:00,24.2,22.4,30.07,SW,229,8.0,10.0,93,0.00,,,0.00,WUHU216DAVISVP2,2013-01-16 14:21:00,
2013-01-16 09:26:00,24.4,22.6,30.07,SW,224,9.0,11.0,93,0.00,,,0.00,WUHU216DAVISVP2,2013-01-16 14:26:00,
2013-01-16 09:31:00,24.6,22.8,30.08,SW,228,10.0,11.0,93,0.00,,,0.00,WUHU216DAVISVP2,2013-01-16 14:31:00,
2013-01-16 09:36:00,24.8,22.8,30.08,SW,233,8.0,11.0,92,0.00,,,0.00,WUHU216DAVISVP2,2013-01-16 14:36:00,
2013-01-16 09:41:00,24.8,22.8,30.08,SW,229,9.0,13.0,92,0.00,,,0.00,WUHU216DAVISVP2,2013-01-16 14:41:00,
2013-01-16 09:46:00,24.8,22.8,30.08,SW,232,9.0,13.0,92,0.00,,,0.00,WUHU216DAVISVP2,2013-01-16 14:46:00,
2013-01-16 09:51:00,24.9,22.9,30.08,SW,221,9.0,13.0,92,0.00,,,0.00,WUHU216DAVISVP2,2013-01-16 14:51:00,
2013-01-16 09:56:00,25.2,23.2,30.07,WSW,242,11.0,13.0,92,0.00,,,0.00,WUHU216DAVISVP2,2013-01-16 14:56:00,
2013-01-16 10:01:00,25.3,23.0,30.08,WSW,255,10.0,13.0,91,0.00,,,0.00,WUHU216DAVISVP2,2013-01-16 15:01:00,
2013-01-16 10:06:00,25.6,23.3,30.07,SW,226,10.0,14.0,91,0.00,,,0.00,WUHU216DAVISVP2,2013-01-16 15:06:00,
2013-01-16 10:11:00,25.7,23.1,30.07,SW,229,8.0,14.0,90,0.00,,,0.00,WUHU216DAVISVP2,2013-01-16 15:11:00,
2013-01-16 10:16:00,26.0,23.4,30.06,SW,224,7.0,13.0,90,0.00,,,0.00,WUHU216DAVISVP2,2013-01-16 15:16:00,
2013-01-16 10:21:00,26.2,23.4,30.07,SSW,200,7.0,13.0,89,0.00,,,0.00,WUHU216DAVISVP2,2013-01-16 15:21:00,
2013-01-16 10:26:00,26.5,23.7,30.07,WSW,256,9.0,13.0,89,0.00,,,0.00,WUHU216DAVISVP2,2013-01-16 15:26:00,
2013-01-16 10:31:00,26.7,23.8,30.07,WSW,240,11.0,12.0,89,0.00,,,0.00,WUHU216DAVISVP2,2013-01-16 15:31:00,
2013-01-16 10:36:00,27.0,24.1,30.07,WSW,256,10.0,13.0,89,0.00,,,0.00,WUHU216DAVISVP2,2013-01-16 15:36:00,
2013-01-16 10:41:00,27.1,24.0,30.06,WSW,243,11.0,13.0,88,0.00,,,0.00,WUHU216DAVISVP2,2013-01-16 15:41:00,
2013-01-16 10:46:00,27.4,24.5,30.06,WSW,255,10.0,14.0,89,0.00,,,0.00,WUHU216DAVISVP2,2013-01-16 15:46:00,
2013-01-16 10:51:00,27.5,24.1,30.06,WSW,240,12.0,16.0,87,0.00,,,0.00,WUHU216DAVISVP2,2013-01-16 15:51:00,
2013-01-16 10:56:00,27.5,24.1,30.05,WSW,255,13.0,16.0,87,0.00,,,0.00,WUHU216DAVISVP2,2013-01-16 15:56:00,
2013-01-16 11:01:00,27.5,23.8,30.06,West,259,15.0,17.0,86,0.00,,,0.00,WUHU216DAVISVP2,2013-01-16 16:01:00,
2013-01-16 11:06:00,27.5,23.6,30.06,WSW,255,12.0,17.0,85,0.00,,,0.00,WUHU216DAVISVP2,2013-01-16 16:06:00,
2013-01-16 11:11:00,27.7,24.1,30.06,West,259,13.0,16.0,86,0.00,,,0.00,WUHU216DAVISVP2,2013-01-16 16:11:00,
2013-01-16 11:16:00,28.0,24.4,30.06,West,275,10.0,16.0,86,0.00,,,0.00,WUHU216DAVISVP2,2013-01-16 16:16:00,
2013-01-16 11:21:00,28.2,24.0,30.05,WSW,257,13.0,15.0,84,0.00,,,0.00,WUHU216DAVISVP2,2013-01-16 16:21:00,
2013-01-16 11:26:00,28.3,23.5,30.05,SW,232,11.0,15.0,82,0.00,,,0.00,WUHU216DAVISVP2,2013-01-16 16:26:00,
2013-01-16 11:31:00,28.3,23.5,30.05,WSW,243,11.0,15.0,82,0.00,,,0.00,WUHU216DAVISVP2,2013-01-16 16:31:00,
2013-01-16 11:36:00,28.5,23.4,30.04,WSW,243,9.0,15.0,81,0.00,,,0.00,WUHU216DAVISVP2,2013-01-16 16:36:00,
2013-01-16 11:41:00,28.8,23.7,30.04,SW,236,8.0,14.0,81,0.00,,,0.00,WUHU216DAVISVP2,2013-01-16 16:41:00,
2013-01-16 11:46:00,28.9,23.5,30.03,SW,233,12.0,14.0,80,0.00,,,0.00,WUHU216DAVISVP2,2013-01-16 16:46:00,
2013-01-16 11:51:00,29.0,23.6,30.03,WSW,243,13.0,16.0,80,0.00,,,0.00,WUHU216DAVISVP2,2013-01-16 16:51:00,
2013-01-16 11:56:00,29.2,23.8,30.03,SW,224,12.0,16.0,80,0.00,,,0.00,WUHU216DAVISVP2,2013-01-16 16:56:00,
2013-01-16 12:01:00,29.3,23.3,30.02,SW,231,12.0,15.0,78,0.00,,,0.00,WUHU216DAVISVP2,2013-01-16 17:01:00,
2013-01-16 12:06:00,29.5,23.8,30.02,WSW,238,10.0,16.0,79,0.00,,,0.00,WUHU216DAVISVP2,2013-01-16 17:06:00,
2013-01-16 12:11:00,29.6,23.0,30.01,SSW,213,12.0,17.0,76,0.00,,,0.00,WUHU216DAVISVP2,2013-01-16 17:11:00,
2013-01-16 12:16:00,29.7,22.8,30.00,SW,222,8.0,18.0,75,0.00,,,0.00,WUHU216DAVISVP2,2013-01-16 17:16:00,
2013-01-16 12:21:00,29.9,23.3,30.00,WSW,238,13.0,18.0,76,0.00,,,0.00,WUHU216DAVISVP2,2013-01-16 17:21:00,
2013-01-16 12:26:00,30.1,23.8,30.00,SW,232,14.0,18.0,77,0.00,,,0.00,WUHU216DAVISVP2,2013-01-16 17:26:00,
2013-01-16 12:31:00,30.4,23.5,29.99,SW,235,17.0,17.0,75,0.00,,,0.00,WUHU216DAVISVP2,2013-01-16 17:31:00,
2013-01-16 12:36:00,30.4,22.8,29.99,SW,226,13.0,19.0,73,0.00,,,0.00,WUHU216DAVISVP2,2013-01-16 17:36:00,
2013-01-16 12:41:00,30.5,22.6,29.98,WSW,238,15.0,19.0,72,0.00,,,0.00,WUHU216DAVISVP2,2013-01-16 17:41:00,
2013-01-16 12:46:00,30.6,23.0,29.98,WSW,242,13.0,19.0,73,0.00,,,0.00,WUHU216DAVISVP2,2013-01-16 17:46:00,
2013-01-16 12:51:00,30.9,23.0,29.98,WSW,246,14.0,19.0,72,0.00,,,0.00,WUHU216DAVISVP2,2013-01-16 17:51:00,
2013-01-16 12:56:00,31.2,22.9,29.98,SW,233,16.0,19.0,71,0.00,,,0.00,WUHU216DAVISVP2,2013-01-16 17:56:00,
2013-01-16 13:01:00,31.4,22.5,29.98,WSW,239,16.0,22.0,69,0.00,,,0.00,WUHU216DAVISVP2,2013-01-16 18:01:00,
2013-01-16 13:06:00,31.4,23.1,29.98,SW,226,15.0,22.0,71,0.00,,,0.00,WUHU216DAVISVP2,2013-01-16 18:06:00,
2013-01-16 13:11:00,31.6,22.7,29.98,SW,228,17.0,23.0,69,0.00,,,0.00,WUHU216DAVISVP2,2013-01-16 18:11:00,
2013-01-16 13:16:00,31.6,23.0,29.97,SW,233,15.0,23.0,70,0.00,,,0.00,WUHU216DAVISVP2,2013-01-16 18:16:00,
2013-01-16 13:21:00,31.8,23.2,29.97,SW,235,17.0,23.0,70,0.00,,,0.00,WUHU216DAVISVP2,2013-01-16 18:21:00,
2013-01-16 13:26:00,32.0,23.7,29.97,WSW,238,15.0,23.0,71,0.00,,,0.00,WUHU216DAVISVP2,2013-01-16 18:26:00,
2013-01-16 13:31:00,32.2,23.9,29.97,SW,221,16.0,21.0,71,0.00,,,0.00,WUHU216DAVISVP2,2013-01-16 18:31:00,
2013-01-16 13:36:00,32.3,23.3,29.96,SW,233,15.0,21.0,69,0.00,,,0.00,WUHU216DAVISVP2,2013-01-16 18:36:00,
2013-01-16 13:41:00,32.5,23.5,29.96,SW,217,12.0,21.0,69,0.00,,,0.00,WUHU216DAVISVP2,2013-01-16 18:41:00,
2013-01-16 13:46:00,32.6,22.9,29.96,SW,229,14.0,21.0,67,0.00,,,0.00,WUHU216DAVISVP2,2013-01-16 18:46:00,
2013-01-16 13:51:00,32.7,23.4,29.96,SW,232,24.0,24.0,68,0.00,,,0.00,WUHU216DAVISVP2,2013-01-16 18:51:00,
2013-01-16 13:56:00,32.7,23.0,29.96,WSW,243,16.0,24.0,67,0.00,,,0.00,WUHU216DAVISVP2,2013-01-16 18:56:00,
2013-01-16 14:01:00,33.0,22.9,29.96,WSW,245,14.0,24.0,66,0.00,,,0.00,WUHU216DAVISVP2,2013-01-16 19:01:00,
2013-01-16 14:06:00,33.2,24.2,29.96,SW,224,11.0,23.0,69,0.00,,,0.00,WUHU216DAVISVP2,2013-01-16 19:06:00,
2013-01-16 14:11:00,33.3,24.3,29.96,SW,231,21.0,22.0,69,0.00,,,0.00,WUHU216DAVISVP2,2013-01-16 19:11:00,
2013-01-16 14:16:00,33.4,24.7,29.96,WSW,240,22.0,22.0,70,0.00,,,0.00,WUHU216DAVISVP2,2013-01-16 19:16:00,
2013-01-16 14:21:00,33.3,23.6,29.96,SW,226,19.0,23.0,67,0.00,,,0.00,WUHU216DAVISVP2,2013-01-16 19:21:00,
2013-01-16 14:26:00,33.4,24.0,29.96,SW,227,18.0,23.0,68,0.00,,,0.00,WUHU216DAVISVP2,2013-01-16 19:26:00,
2013-01-16 14:31:00,33.5,23.8,29.96,WSW,249,15.0,24.0,67,0.00,,,0.00,WUHU216DAVISVP2,2013-01-16 19:31:00,
2013-01-16 14:36:00,33.6,24.6,29.96,SW,235,18.0,24.0,69,0.00,,,0.00,WUHU216DAVISVP2,2013-01-16 19:36:00,
2013-01-16 14:41:00,33.8,24.0,29.95,SW,235,17.0,24.0,67,0.00,,,0.00,WUHU216DAVISVP2,2013-01-16 19:41:00,
2013-01-16 14:46:00,33.8,23.3,29.95,SW,231,16.0,24.0,65,0.00,,,0.00,WUHU216DAVISVP2,2013-01-16 19:46:00,
2013-01-16 14:51:00,33.9,23.8,29.95,WSW,238,15.0,24.0,66,0.00,,,0.00,WUHU216DAVISVP2,2013-01-16 19:51:00,
2013-01-16 14:56:00,34.0,24.3,29.95,WSW,240,13.0,24.0,67,0.00,,,0.00,WUHU216DAVISVP2,2013-01-16 19:56:00,
2013-01-16 15:01:00,34.0,23.2,29.95,SW,232,18.0,24.0,64,0.00,,,0.00,WUHU216DAVISVP2,2013-01-16 20:01:00,
2013-01-16 15:06:00,34.1,23.6,29.95,SW,235,18.0,25.0,65,0.00,,,0.00,WUHU216DAVISVP2,2013-01-16 20:06:00,
2013-01-16 15:11:00,34.2,23.0,29.95,SW,214,18.0,26.0,63,0.00,,,0.00,WUHU216DAVISVP2,2013-01-16 20:11:00,
2013-01-16 15:16:00,34.3,23.5,29.95,SW,235,18.0,26.0,64,0.00,,,0.00,WUHU216DAVISVP2,2013-01-16 20:16:00,
2013-01-16 15:21:00,34.3,23.8,29.95,WSW,238,19.0,26.0,65,0.00,,,0.00,WUHU216DAVISVP2,2013-01-16 20:21:00,
2013-01-16 15:26:00,34.3,24.2,29.95,WSW,249,16.0,26.0,66,0.00,,,0.00,WUHU216DAVISVP2,2013-01-16 20:26:00,
2013-01-16 15:31:00,34.4,24.3,29.95,SW,224,13.0,25.0,66,0.00,,,0.00,WUHU216DAVISVP2,2013-01-16 20:31:00,
2013-01-16 15:36:00,34.5,24.7,29.95,SW,219,11.0,25.0,67,0.00,,,0.00,WUHU216DAVISVP2,2013-01-16 20:36:00,
2013-01-16 15:41:00,34.7,25.3,29.94,SW,232,18.0,25.0,68,0.00,,,0.00,WUHU216DAVISVP2,2013-01-16 20:41:00,
2013-01-16 15:46:00,34.5,24.0,29.94,WSW,248,19.0,24.0,65,0.00,,,0.00,WUHU216DAVISVP2,2013-01-16 20:46:00,
2013-01-16 15:51:00,34.5,24.4,29.94,SW,224,14.0,24.0,66,0.00,,,0.00,WUHU216DAVISVP2,2013-01-16 20:51:00,
2013-01-16 15:56:00,34.5,25.1,29.94,SW,225,12.0,24.0,68,0.00,,,0.00,WUHU216DAVISVP2,2013-01-16 20:56:00,
2013-01-16 16:01:00,34.5,25.4,29.95,SW,229,16.0,24.0,69,0.00,,,0.00,WUHU216DAVISVP2,2013-01-16 21:01:00,
2013-01-16 16:06:00,34.5,25.1,29.94,SW,231,14.0,23.0,68,0.00,,,0.00,WUHU216DAVISVP2,2013-01-16 21:06:00,
2013-01-16 16:11:00,34.5,24.7,29.94,SW,218,17.0,23.0,67,0.00,,,0.00,WUHU216DAVISVP2,2013-01-16 21:11:00,
2013-01-16 16:16:00,34.5,25.4,29.95,SW,236,16.0,23.0,69,0.00,,,0.00,WUHU216DAVISVP2,2013-01-16 21:16:00,
2013-01-16 16:21:00,34.5,25.4,29.95,WSW,250,11.0,23.0,69,0.00,,,0.00,WUHU216DAVISVP2,2013-01-16 21:21:00,
2013-01-16 16:26:00,34.5,25.4,29.95,SW,225,16.0,22.0,69,0.00,,,0.00,WUHU216DAVISVP2,2013-01-16 21:26:00,
2013-01-16 16:31:00,34.5,25.4,29.95,WSW,240,14.0,21.0,69,0.00,,,0.00,WUHU216DAVISVP2,2013-01-16 21:31:00,
2013-01-16 16:36:00,34.5,25.4,29.96,SW,235,12.0,25.0,69,0.00,,,0.00,WUHU216DAVISVP2,2013-01-16 21:36:00,
2013-01-16 16:41:00,34.5,25.8,29.96,SW,226,11.0,25.0,70,0.00,,,0.00,WUHU216DAVISVP2,2013-01-16 21:41:00,
2013-01-16 16:46:00,34.4,25.7,29.97,SW,229,13.0,24.0,70,0.00,,,0.00,WUHU216DAVISVP2,2013-01-16 21:46:00,
2013-01-16 16:51:00,34.4,25.7,29.98,WSW,238,13.0,23.0,70,0.00,,,0.00,WUHU216DAVISVP2,2013-01-16 21:51:00,
2013-01-16 16:56:00,34.3,24.9,29.98,WSW,242,23.0,23.0,68,0.00,,,0.00,WUHU216DAVISVP2,2013-01-16 21:56:00,
2013-01-16 17:01:00,34.2,25.4,29.98,WSW,243,15.0,23.0,70,0.00,,,0.00,WUHU216DAVISVP2,2013-01-16 22:01:00,
2013-01-16 17:06:00,34.1,25.4,29.98,SW,228,15.0,23.0,70,0.00,,,0.00,WUHU216DAVISVP2,2013-01-16 22:06:00,
2013-01-16 17:11:00,34.1,25.3,29.98,SW,233,17.0,23.0,70,0.00,,,0.00,WUHU216DAVISVP2,2013-01-16 22:11:00,
2013-01-16 17:16:00,34.1,26.0,29.99,SW,225,11.0,23.0,72,0.00,,,0.00,WUHU216DAVISVP2,2013-01-16 22:16:00,
2013-01-16 17:21:00,33.9,26.2,29.99,SW,215,12.0,23.0,73,0.00,,,0.00,WUHU216DAVISVP2,2013-01-16 22:21:00,
2013-01-16 17:26:00,33.7,26.0,29.99,SW,221,12.0,23.0,73,0.00,,,0.00,WUHU216DAVISVP2,2013-01-16 22:26:00,
2013-01-16 17:31:00,33.6,26.2,29.99,WSW,242,8.0,18.0,74,0.00,,,0.00,WUHU216DAVISVP2,2013-01-16 22:31:00,
2013-01-16 17:36:00,33.4,26.1,30.00,WSW,243,10.0,18.0,74,0.00,,,0.00,WUHU216DAVISVP2,2013-01-16 22:36:00,
2013-01-16 17:41:00,33.2,25.9,29.99,SW,226,11.0,18.0,74,0.00,,,0.00,WUHU216DAVISVP2,2013-01-16 22:41:00,
2013-01-16 17:46:00,33.0,26.0,29.99,WSW,240,13.0,17.0,75,0.00,,,0.00,WUHU216DAVISVP2,2013-01-16 22:46:00,
2013-01-16 17:51:00,32.9,26.2,29.99,SW,228,12.0,16.0,76,0.00,,,0.00,WUHU216DAVISVP2,2013-01-16 22:51:00,
2013-01-16 17:56:00,32.9,26.2,30.00,SW,216,14.0,16.0,76,0.00,,,0.00,WUHU216DAVISVP2,2013-01-16 22:56:00,
2013-01-16 18:01:00,33.1,26.1,30.00,SW,221,15.0,21.0,75,0.00,,,0.00,WUHU216DAVISVP2,2013-01-16 23:01:00,
2013-01-16 18:06:00,33.2,26.5,30.00,SW,232,14.0,21.0,76,0.00,,,0.00,WUHU216DAVISVP2,2013-01-16 23:06:00,
2013-01-16 18:11:00,33.1,26.4,30.00,SSW,212,11.0,20.0,76,0.00,,,0.00,WUHU216DAVISVP2,2013-01-16 23:11:00,
2013-01-16 18:16:00,33.0,26.3,30.00,SW,228,12.0,20.0,76,0.00,,,0.00,WUHU216DAVISVP2,2013-01-16 23:16:00,
2013-01-16 18:21:00,32.9,26.5,30.00,WSW,238,13.0,18.0,77,0.00,,,0.00,WUHU216DAVISVP2,2013-01-16 23:21:00,
2013-01-16 18:26:00,32.8,26.4,30.00,SW,236,10.0,18.0,77,0.00,,,0.00,WUHU216DAVISVP2,2013-01-16 23:26:00,
2013-01-16 18:31:00,32.9,26.5,30.00,SW,226,12.0,17.0,77,0.00,,,0.00,WUHU216DAVISVP2,2013-01-16 23:31:00,
2013-01-16 18:36:00,32.9,26.5,30.00,SSW,210,14.0,19.0,77,0.00,,,0.00,WUHU216DAVISVP2,2013-01-16 23:36:00,
2013-01-16 18:41:00,33.0,26.6,30.00,SW,221,16.0,20.0,77,0.00,,,0.00,WUHU216DAVISVP2,2013-01-16 23:41:00,
2013-01-16 18:46:00,33.1,26.4,30.00,SW,232,16.0,20.0,76,0.00,,,0.00,WUHU216DAVISVP2,2013-01-16 23:46:00,
2013-01-16 18:51:00,33.1,26.7,30.00,SW,231,15.0,20.0,77,0.00,,,0.00,WUHU216DAVISVP2,2013-01-16 23:51:00,
2013-01-16 18:56:00,33.1,26.7,30.01,SW,230,16.0,19.0,77,0.00,,,0.00,WUHU216DAVISVP2,2013-01-16 23:56:00,
2013-01-16 19:01:00,33.2,26.5,30.00,SW,221,18.0,21.0,76,0.00,,,0.00,WUHU216DAVISVP2,2013-01-17 00:01:00,
2013-01-16 19:06:00,33.2,26.8,30.01,SW,233,13.0,21.0,77,0.00,,,0.00,WUHU216DAVISVP2,2013-01-17 00:06:00,
2013-01-16 19:11:00,33.3,26.9,30.01,SW,235,17.0,21.0,77,0.00,,,0.00,WUHU216DAVISVP2,2013-01-17 00:11:00,
2013-01-16 19:16:00,33.3,26.6,30.00,SW,232,17.0,22.0,76,0.00,,,0.00,WUHU216DAVISVP2,2013-01-17 00:16:00,
2013-01-16 19:21:00,33.3,26.9,30.01,SW,231,17.0,22.0,77,0.00,,,0.00,WUHU216DAVISVP2,2013-01-17 00:21:00,
2013-01-16 19:26:00,33.3,26.9,30.01,SW,219,14.0,21.0,77,0.00,,,0.00,WUHU216DAVISVP2,2013-01-17 00:26:00,
2013-01-16 19:31:00,33.3,26.9,30.01,SW,226,16.0,21.0,77,0.00,,,0.00,WUHU216DAVISVP2,2013-01-17 00:31:00,
2013-01-16 19:36:00,33.3,26.9,30.01,SW,226,12.0,21.0,77,0.00,,,0.00,WUHU216DAVISVP2,2013-01-17 00:36:00,
2013-01-16 19:41:00,33.3,26.9,30.01,SW,235,14.0,23.0,77,0.00,,,0.00,WUHU216DAVISVP2,2013-01-17 00:41:00,
2013-01-16 19:46:00,33.3,27.2,30.02,WSW,257,12.0,23.0,78,0.00,,,0.00,WUHU216DAVISVP2,2013-01-17 00:46:00,
2013-01-16 19:51:00,33.3,27.2,30.02,SW,225,13.0,22.0,78,0.00,,,0.00,WUHU216DAVISVP2,2013-01-17 00:51:00,
2013-01-16 19:56:00,33.2,27.1,30.02,WSW,248,14.0,23.0,78,0.00,,,0.00,WUHU216DAVISVP2,2013-01-17 00:56:00,
2013-01-16 20:01:00,33.2,27.4,30.02,WSW,240,12.0,23.0,79,0.00,,,0.00,WUHU216DAVISVP2,2013-01-17 01:01:00,
2013-01-16 20:06:00,33.1,27.3,30.02,WSW,249,14.0,22.0,79,0.00,,,0.00,WUHU216DAVISVP2,2013-01-17 01:06:00,
2013-01-16 20:11:00,33.1,27.6,30.03,WSW,246,17.0,22.0,80,0.00,,,0.00,WUHU216DAVISVP2,2013-01-17 01:11:00,
2013-01-16 20:16:00,33.1,27.6,30.03,WSW,253,18.0,21.0,80,0.00,,,0.00,WUHU216DAVISVP2,2013-01-17 01:16:00,
2013-01-16 20:21:00,33.1,27.6,30.03,WSW,242,18.0,21.0,80,0.00,,,0.00,WUHU216DAVISVP2,2013-01-17 01:21:00,
2013-01-16 20:26:00,33.1,27.3,30.03,SW,232,12.0,21.0,79,0.00,,,0.00,WUHU216DAVISVP2,2013-01-17 01:26:00,
2013-01-16 20:31:00,33.2,27.4,30.03,SW,221,11.0,20.0,79,0.00,,,0.00,WUHU216DAVISVP2,2013-01-17 01:31:00,
2013-01-16 20:36:00,33.2,27.7,30.03,WSW,238,12.0,20.0,80,0.00,,,0.00,WUHU216DAVISVP2,2013-01-17 01:36:00,
2013-01-16 20:41:00,33.2,27.7,30.03,WSW,240,14.0,19.0,80,0.00,,,0.00,WUHU216DAVISVP2,2013-01-17 01:41:00,
2013-01-16 20:46:00,33.2,27.7,30.03,WSW,243,14.0,20.0,80,0.00,,,0.00,WUHU216DAVISVP2,2013-01-17 01:46:00,
2013-01-16 20:51:00,33.2,27.7,30.03,SW,236,13.0,20.0,80,0.00,,,0.00,WUHU216DAVISVP2,2013-01-17 01:51:00,
2013-01-16 20:56:00,33.2,28.0,30.04,WSW,238,15.0,20.0,81,0.00,,,0.00,WUHU216DAVISVP2,2013-01-17 01:56:00,
2013-01-16 21:01:00,33.2,28.0,30.05,WSW,248,17.0,22.0,81,0.00,,,0.00,WUHU216DAVISVP2,2013-01-17 02:01:00,
2013-01-16 21:06:00,33.2,28.0,30.05,WSW,239,15.0,22.0,81,0.00,,,0.00,WUHU216DAVISVP2,2013-01-17 02:06:00,
2013-01-16 21:11:00,33.2,28.0,30.05,WSW,246,18.0,21.0,81,0.00,,,0.00,WUHU216DAVISVP2,2013-01-17 02:11:00,
2013-01-16 21:16:00,33.2,28.0,30.05,WSW,252,13.0,21.0,81,0.00,,,0.00,WUHU216DAVISVP2,2013-01-17 02:16:00,
2013-01-16 21:21:00,33.2,28.3,30.06,WSW,238,13.0,21.0,82,0.00,,,0.00,WUHU216DAVISVP2,2013-01-17 02:21:00,
2013-01-16 21:26:00,33.2,28.3,30.06,WSW,246,13.0,20.0,82,0.00,,,0.00,WUHU216DAVISVP2,2013-01-17 02:26:00,
2013-01-16 21:31:00,33.2,28.6,30.06,WSW,238,14.0,20.0,83,0.00,,,0.00,WUHU216DAVISVP2,2013-01-17 02:31:00,
2013-01-16 21:36:00,33.2,28.6,30.06,WSW,246,13.0,19.0,83,0.00,,,0.00,WUHU216DAVISVP2,2013-01-17 02:36:00,
2013-01-16 21:41:00,33.2,28.6,30.06,WSW,242,18.0,20.0,83,0.00,,,0.00,WUHU216DAVISVP2,2013-01-17 02:41:00,
2013-01-16 21:46:00,33.3,28.7,30.06,WSW,238,16.0,20.0,83,0.00,,,0.00,WUHU216DAVISVP2,2013-01-17 02:46:00,
2013-01-16 21:51:00,33.2,28.6,30.06,WSW,248,13.0,19.0,83,0.00,,,0.00,WUHU216DAVISVP2,2013-01-17 02:51:00,
2013-01-16 21:56:00,33.2,28.9,30.07,WSW,240,14.0,19.0,84,0.00,,,0.00,WUHU216DAVISVP2,2013-01-17 02:56:00,
2013-01-16 22:01:00,33.2,28.9,30.07,WSW,240,12.0,19.0,84,0.00,,,0.00,WUHU216DAVISVP2,2013-01-17 03:01:00,
2013-01-16 22:06:00,33.2,28.9,30.07,SW,236,13.0,18.0,84,0.00,,,0.00,WUHU216DAVISVP2,2013-01-17 03:06:00,
2013-01-16 22:11:00,33.1,28.8,30.06,WSW,250,12.0,17.0,84,0.00,,,0.00,WUHU216DAVISVP2,2013-01-17 03:11:00,
2013-01-16 22:16:00,33.1,28.8,30.07,WSW,245,14.0,17.0,84,0.00,,,0.00,WUHU216DAVISVP2,2013-01-17 03:16:00,
2013-01-16 22:21:00,33.1,28.8,30.07,WSW,245,14.0,16.0,84,0.00,,,0.00,WUHU216DAVISVP2,2013-01-17 03:21:00,
2013-01-16 22:26:00,33.1,29.1,30.07,WSW,242,11.0,17.0,85,0.00,,,0.00,WUHU216DAVISVP2,2013-01-17 03:26:00,
2013-01-16 22:31:00,33.1,29.1,30.07,WSW,246,13.0,17.0,85,0.00,,,0.00,WUHU216DAVISVP2,2013-01-17 03:31:00,
2013-01-16 22:36:00,33.1,29.1,30.07,West,259,10.0,17.0,85,0.00,,,0.00,WUHU216DAVISVP2,2013-01-17 03:36:00,
2013-01-16 22:41:00,33.0,29.0,30.07,WSW,238,16.0,17.0,85,0.00,,,0.00,WUHU216DAVISVP2,2013-01-17 03:41:00,
2013-01-16 22:46:00,33.0,29.0,30.07,WSW,248,10.0,16.0,85,0.00,,,0.00,WUHU216DAVISVP2,2013-01-17 03:46:00,
2013-01-16 22:51:00,33.1,29.1,30.07,WSW,243,9.0,16.0,85,0.00,,,0.00,WUHU216DAVISVP2,2013-01-17 03:51:00,
2013-01-16 22:56:00,33.1,29.1,30.07,WSW,257,7.0,15.0,85,0.00,,,0.00,WUHU216DAVISVP2,2013-01-17 03:56:00,
2013-01-16 23:01:00,33.1,29.1,30.07,WSW,249,13.0,14.0,85,0.00,,,0.00,WUHU216DAVISVP2,2013-01-17 04:01:00,
2013-01-16 23:06:00,33.2,29.2,30.08,WSW,248,10.0,14.0,85,0.00,,,0.00,WUHU216DAVISVP2,2013-01-17 04:06:00,
2013-01-16 23:11:00,33.1,29.1,30.08,WSW,257,15.0,15.0,85,0.00,,,0.00,WUHU216DAVISVP2,2013-01-17 04:11:00,
2013-01-16 23:16:00,33.1,29.4,30.08,WSW,245,9.0,15.0,86,0.00,,,0.00,WUHU216DAVISVP2,2013-01-17 04:16:00,
2013-01-16 23:21:00,33.1,29.1,30.08,WSW,257,11.0,15.0,85,0.00,,,0.00,WUHU216DAVISVP2,2013-01-17 04:21:00,
2013-01-16 23:26:00,33.1,29.1,30.08,WSW,252,10.0,16.0,85,0.00,,,0.00,WUHU216DAVISVP2,2013-01-17 04:26:00,
2013-01-16 23:31:00,33.0,29.0,30.08,WSW,255,8.0,16.0,85,0.00,,,0.00,WUHU216DAVISVP2,2013-01-17 04:31:00,
2013-01-16 23:37:00,32.7,28.7,30.09,WSW,257,10.0,16.0,85,0.00,,,0.00,WUHU216DAVISVP2,2013-01-17 04:37:00,
2013-01-16 23:42:00,32.5,28.8,30.08,WSW,256,9.0,16.0,86,0.00,,,0.00,WUHU216DAVISVP2,2013-01-17 04:42:00,
2013-01-16 23:46:00,32.3,28.6,30.08,WSW,245,8.0,14.0,86,0.00,,,0.00,WUHU216DAVISVP2,2013-01-17 04:46:00,
2013-01-16 23:52:00,32.0,28.3,30.09,WSW,253,9.0,12.0,86,0.00,,,0.00,WUHU216DAVISVP2,2013-01-17 04:52:00,
2013-01-16 23:57:00,31.8,28.3,30.08,WSW,246,8.0,12.0,87,0.00,,,0.00,WUHU216DAVISVP2,2013-01-17 04:57:00,